Huvudsida
METAR-TAF:

METAR-TAF

Flygplatser :

Yaounde flygplats

Yaoundé, Kamerun

latitud: 03-50N, longitud: 011-31E, höjd: 751 m

Aktuellt väderrapport

Denna rapport gjordes för 47 minuter sedan, klockan 12:00 UTC
Temperatur 29°C
Fuktighet 66%
Tryck 1017 hPa
Sikt: 8000 m
Spridda moln på en höjd av 2000 ft

METAR: FKYS 121200Z /////KT 8000 SCT020 29/22 Q1017 NOSIG

Tid: 13:47 (12:47 UTC)

Väderprognos

Denna rapport gjordes för 1 timme och 47 minuter sedan, klockan 11:00 UTC
Prognos gäller från 12 kl. 12 UTC till 13 kl. 12 UTC
Vind 4 kt varierande vindriktning
Sikt: 8000 m
Brutna moln på en höjd av 2000 ft
Blir
från 12 kl. 20 UTC till 12 kl. 22 UTC
Brutna moln på en höjd av 600 ft
Temporärt
från 13 kl. 00 UTC till 13 kl. 06 UTC
Sikt: 3000 m
fuktdis
Blir
från 13 kl. 06 UTC till 13 kl. 10 UTC
Brutna moln på en höjd av 1600 ft

TAF: FKYS 121100Z 1212/1312 VRB04KT 8000 BKN020 BECMG 1220/1222 BKN006 TEMPO 1300/1306 3000 BR BECMG 1306/1310 BKN016

Aktuella väderrapporter och prognoser från 4000 flygplatser (METAR- och TAF-rapporter).

De tillgängliga stationerna syns som gula och röda prickar på kartan.

För musen över prickarna för att se namnen på stationerna.

Klicka sedan för att få väderrapporter och prognoser.

För att ändra kartan: Klicka på de gröna knapparna med ett svart kors på för att zooma in; den gröna knappen med ett streck på för att zooma ut; eller på de gröna pilarna för angränsande kartor.


METAR-TAF: